WADD/DPS METAR and TAF weather

Enter ICAO airport designator
Station Type Date Time Source
WADD METAR 2019/11/22 00:30 UTC NOAA

WADD 220030Z 29004KT 9999 BKN015 28/24 Q1013 NOSIG


Station Type Date Time Source
WADD Decoded METAR 2019/11/22 00:30 UTC NOAA

Station name not available
Nov 21, 2019 - 07:30 PM EST / 2019.11.22 0030 UTC
Wind: from the WNW (290 degrees) at 5 MPH (4 KT):0
Visibility: greater than 7 mile(s):0
Sky conditions: mostly cloudy
Temperature: 82 F (28 C)
Dew Point: 75 F (24 C)
Relative Humidity: 78%
Pressure (altimeter): 29.91 in. Hg (1013 hPa)
ob: WADD 220030Z 29004KT 9999 BKN015 28/24 Q1013 NOSIG
cycle: 0

Station Type Date Time Source
WADD TAF 2019/11/21 18:09 UTC NOAA

TAF TAF WADD 211700Z 2118/2218 VRB05KT 9999 SCT017
BECMG 2122/2200 26008KT
BECMG 2205/2207 14010KT
BECMG 2212/2214 VRB05KT

Example: see airport list